METAR
Diposting tanggal: 24 November 2019

Pukul : 09.00 UTC

Isi :

METAR WAGI 090900Z 27003KT 9000 FEW012CB SCT012 30/24 Q1007 RMK CB TO SE=